Time;durP1;ratioP1;P1;durP2;ratioP2;P2;SDS_P1;SDS_P2;PMS_P1;PMS_P2;Temp;Humidity;BMP_temperature;BMP_pressure;BME280_temperature;BME280_humidity;BME280_pressure;Samples;Min_cycle;Max_cycle;Signal;HPM_P1;HPM_P2
2023/04/28 00:00:26;;;;;;;20.02;10.23;;;;;;;8.02;93.82;101393.25;5024159;28;20466;-83
2023/04/28 00:02:52;;;;;;;15.98;9.05;;;;;;;7.93;94.88;101383.03;5036061;28;20025;-83
2023/04/28 00:05:18;;;;;;;17.13;8.85;;;;;;;8.00;95.19;101388.03;5016706;28;20108;-84
2023/04/28 00:07:44;;;;;;;16.92;8.68;;;;;;;8.10;94.30;101375.59;5042758;28;20123;-83
2023/04/28 00:10:09;;;;;;;13.30;8.40;;;;;;;8.06;94.30;101374.66;5019499;28;20025;-83
2023/04/28 00:12:35;;;;;;;15.13;8.75;;;;;;;8.10;95.01;101375.59;5040752;28;20375;-83
2023/04/28 00:15:00;;;;;;;18.38;8.65;;;;;;;7.94;95.44;101362.34;5022635;28;20163;-83
2023/04/28 00:17:26;;;;;;;15.48;8.50;;;;;;;8.11;94.59;101360.47;5020476;28;20111;-84
2023/04/28 00:19:51;;;;;;;18.75;9.48;;;;;;;7.92;95.34;101352.69;5036197;28;20033;-84
2023/04/28 00:22:17;;;;;;;19.27;9.32;;;;;;;7.98;95.77;101340.16;5010875;28;20029;-84
2023/04/28 00:24:43;;;;;;;16.20;8.60;;;;;;;8.05;95.16;101336.78;5018278;28;20060;-84
2023/04/28 00:27:09;;;;;;;14.02;8.05;;;;;;;7.86;96.42;101326.22;5013984;28;20049;-84
2023/04/28 00:29:35;;;;;;;16.85;9.15;;;;;;;7.93;96.50;101320.91;5028914;28;20147;-84
2023/04/28 00:32:01;;;;;;;18.02;9.65;;;;;;;7.76;97.24;101321.94;5037708;28;20025;-84
2023/04/28 00:34:28;;;;;;;17.52;8.85;;;;;;;7.84;97.55;101323.81;5039343;28;20389;-84
2023/04/28 00:36:53;;;;;;;17.20;9.90;;;;;;;7.63;98.43;101320.28;5037995;28;20100;-84
2023/04/28 00:39:18;;;;;;;16.70;8.45;;;;;;;7.84;97.75;101320.19;5036447;28;20120;-84
2023/04/28 00:41:44;;;;;;;15.98;9.15;;;;;;;7.80;98.28;101316.47;5024579;28;20056;-84
2023/04/28 00:44:09;;;;;;;13.23;8.40;;;;;;;7.71;98.59;101308.22;5042718;28;20114;-84
2023/04/28 00:46:35;;;;;;;16.98;9.85;;;;;;;7.74;98.87;101301.97;5040068;28;20061;-84
2023/04/28 00:49:00;;;;;;;18.38;9.82;;;;;;;7.72;99.43;101309.88;5043899;28;20522;-84
2023/04/28 00:51:29;;;;;;;15.73;7.88;;;;;;;7.93;97.66;101304.97;5022242;28;20035;-84
2023/04/28 00:53:55;;;;;;;16.65;8.80;;;;;;;7.73;99.57;101311.47;5025185;28;20041;-84
2023/04/28 00:56:21;;;;;;;19.92;9.60;;;;;;;7.71;99.70;101297.06;5043186;28;20031;-84
2023/04/28 00:58:46;;;;;;;17.30;9.38;;;;;;;7.77;99.62;101290.13;5015119;28;20038;-84
2023/04/28 01:01:11;;;;;;;18.23;10.63;;;;;;;7.67;100.00;101287.78;5026965;28;20025;-84
2023/04/28 01:03:39;;;;;;;22.13;10.07;;;;;;;7.62;100.00;101288.84;5034302;28;20061;-84
2023/04/28 01:06:06;;;;;;;23.80;11.40;;;;;;;7.66;100.00;101283.38;5018000;28;20035;-84
2023/04/28 01:08:33;;;;;;;18.08;9.82;;;;;;;7.64;100.00;101285.72;5017555;28;20443;-84
2023/04/28 01:10:59;;;;;;;17.70;9.50;;;;;;;7.71;100.00;101275.59;5040489;28;20041;-85
2023/04/28 01:13:24;;;;;;;20.27;9.35;;;;;;;7.91;98.69;101284.19;5036428;28;20048;-85
2023/04/28 01:15:50;;;;;;;19.40;9.63;;;;;;;7.76;99.70;101279.31;5042440;28;20040;-84
2023/04/28 01:18:15;;;;;;;18.10;9.50;;;;;;;7.64;100.00;101277.34;5038794;28;20029;-84
2023/04/28 01:20:41;;;;;;;21.52;9.75;;;;;;;7.73;99.96;101278.84;5037149;28;20039;-84
2023/04/28 01:23:15;;;;;;;15.55;9.60;;;;;;;7.68;99.82;101269.94;5036529;28;20037;-84
2023/04/28 01:25:42;;;;;;;18.42;9.35;;;;;;;7.87;98.64;101275.72;5039286;28;20429;-84
2023/04/28 01:28:08;;;;;;;18.83;10.30;;;;;;;7.64;99.65;101269.00;5028830;28;20037;-84
2023/04/28 01:30:34;;;;;;;19.13;10.00;;;;;;;7.54;99.76;101254.34;5037638;28;20028;-84
2023/04/28 01:33:00;;;;;;;19.27;10.52;;;;;;;7.35;100.00;101250.53;5022526;28;20467;-84
2023/04/28 01:35:25;;;;;;;23.92;11.93;;;;;;;7.32;100.00;101244.50;5038023;28;20043;-84
2023/04/28 01:37:51;;;;;;;24.77;10.98;;;;;;;7.36;100.00;101236.25;5042965;28;20501;-84
2023/04/28 01:40:16;;;;;;;16.75;9.52;;;;;;;7.48;100.00;101244.63;5027181;28;20037;-84
2023/04/28 01:42:42;;;;;;;19.77;9.82;;;;;;;7.26;100.00;101239.50;5023363;28;20029;-84
2023/04/28 01:45:07;;;;;;;19.58;10.07;;;;;;;7.37;100.00;101249.00;5024063;28;20173;-84
2023/04/28 01:47:33;;;;;;;18.48;10.50;;;;;;;7.41;100.00;101233.22;5037641;28;20634;-84
2023/04/28 01:49:58;;;;;;;20.35;10.05;;;;;;;7.40;100.00;101239.97;5014335;28;20081;-84
2023/04/28 01:52:24;;;;;;;23.45;10.80;;;;;;;7.37;100.00;101226.72;5031520;28;20477;-84
2023/04/28 01:54:49;;;;;;;23.23;11.30;;;;;;;7.14;100.00;101218.00;5019105;28;20061;-84
2023/04/28 01:57:15;;;;;;;23.08;12.25;;;;;;;7.09;100.00;101221.84;5036344;28;21054;-84
2023/04/28 01:59:41;;;;;;;21.05;10.88;;;;;;;7.09;100.00;101204.34;5017560;28;20159;-84
2023/04/28 02:02:06;;;;;;;21.38;10.98;;;;;;;7.18;100.00;101195.88;5032163;28;20032;-84
2023/04/28 02:04:31;;;;;;;21.80;12.82;;;;;;;7.06;100.00;101205.00;5021894;28;20071;-83
2023/04/28 02:06:57;;;;;;;21.48;10.90;;;;;;;7.00;100.00;101201.66;5037672;28;20052;-85
2023/04/28 02:09:23;;;;;;;22.65;12.00;;;;;;;7.10;100.00;101201.22;5037793;28;20032;-84
2023/04/28 02:11:48;;;;;;;17.20;11.07;;;;;;;7.26;100.00;101206.09;5040495;28;20028;-84
2023/04/28 02:14:14;;;;;;;19.67;10.43;;;;;;;7.18;100.00;101202.25;5039155;28;20031;-85
2023/04/28 02:16:39;;;;;;;27.15;10.77;;;;;;;7.12;100.00;101193.28;5021309;28;20132;-85
2023/04/28 02:19:04;;;;;;;24.75;11.98;;;;;;;7.01;100.00;101208.84;5021137;28;20098;-85
2023/04/28 02:21:30;;;;;;;21.58;10.60;;;;;;;7.23;100.00;101202.03;5031167;28;20078;-85
2023/04/28 02:23:56;;;;;;;27.60;11.40;;;;;;;7.35;100.00;101206.78;5025426;28;20031;-85
2023/04/28 02:26:21;;;;;;;24.35;12.93;;;;;;;7.46;100.00;101191.25;5042333;28;20108;-85
2023/04/28 02:28:48;;;;;;;22.67;11.05;;;;;;;7.41;100.00;101190.66;5039431;28;20032;-84
2023/04/28 02:31:13;;;;;;;27.73;11.02;;;;;;;7.37;100.00;101193.31;5019478;28;20497;-84
2023/04/28 02:33:41;;;;;;;21.20;11.43;;;;;;;7.31;100.00;101195.50;5014044;28;20035;-85
2023/04/28 02:36:07;;;;;;;18.75;10.27;;;;;;;7.41;100.00;101188.66;5018878;28;20444;-85
2023/04/28 02:38:32;;;;;;;20.75;12.27;;;;;;;7.38;100.00;101194.94;5032968;28;20108;-84
2023/04/28 02:41:00;;;;;;;21.55;11.30;;;;;;;7.39;100.00;101188.22;5038533;28;20619;-84
2023/04/28 02:43:27;;;;;;;17.90;10.45;;;;;;;7.21;100.00;101186.81;5020800;28;20021;-85
2023/04/28 02:45:53;;;;;;;23.58;11.35;;;;;;;7.50;100.00;101186.56;5020249;28;20037;-85
2023/04/28 02:48:18;;;;;;;22.10;9.90;;;;;;;7.36;100.00;101165.81;5035790;28;20045;-85
2023/04/28 02:50:45;;;;;;;22.55;11.05;;;;;;;7.39;100.00;101173.47;5035186;28;20656;-84
2023/04/28 02:53:10;;;;;;;21.95;11.52;;;;;;;7.42;99.89;101156.91;5015715;28;20090;-85
2023/04/28 02:55:36;;;;;;;21.45;11.13;;;;;;;7.48;99.51;101172.22;5017959;28;20029;-84
2023/04/28 02:58:01;;;;;;;22.73;11.98;;;;;;;7.32;100.00;101174.88;5034596;28;20566;-85
2023/04/28 03:00:27;;;;;;;20.45;10.55;;;;;;;7.67;97.71;101173.56;5018145;28;21057;-84
2023/04/28 03:02:53;;;;;;;16.77;10.10;;;;;;;7.64;97.55;101168.69;5020664;28;20033;-85
2023/04/28 03:05:19;;;;;;;19.98;10.98;;;;;;;7.65;97.95;101164.72;5020252;28;20108;-84
2023/04/28 03:07:44;;;;;;;18.92;10.80;;;;;;;7.50;99.13;101169.06;5035431;28;20570;-84
2023/04/28 03:10:09;;;;;;;22.17;10.95;;;;;;;7.04;100.00;101158.06;5015572;28;20932;-84
2023/04/28 03:12:35;;;;;;;19.63;9.40;;;;;;;7.45;99.04;101150.59;5017296;28;20021;-84
2023/04/28 03:15:00;;;;;;;22.00;10.63;;;;;;;7.67;97.74;101160.47;5031745;28;20036;-85
2023/04/28 03:17:26;;;;;;;23.27;10.90;;;;;;;7.66;97.64;101152.44;5035097;28;20039;-85
2023/04/28 03:19:51;;;;;;;19.27;10.93;;;;;;;7.38;99.61;101144.81;5028949;28;20029;-84
2023/04/28 03:22:17;;;;;;;19.55;10.32;;;;;;;7.60;98.30;101156.63;5014544;28;21736;-84
2023/04/28 03:24:42;;;;;;;18.90;10.65;;;;;;;7.60;97.45;101145.50;5036744;28;20320;-85
2023/04/28 03:27:08;;;;;;;18.73;10.38;;;;;;;7.38;99.93;101150.41;5006881;28;20037;-85
2023/04/28 03:29:33;;;;;;;19.15;10.20;;;;;;;7.44;98.77;101135.06;5032976;28;20037;-84
2023/04/28 03:31:58;;;;;;;21.60;11.02;;;;;;;7.41;99.02;101127.41;4997877;28;20033;-85
2023/04/28 03:34:24;;;;;;;24.23;12.38;;;;;;;7.22;100.00;101124.41;5029597;28;20029;-85
2023/04/28 03:36:49;;;;;;;21.00;10.82;;;;;;;7.09;100.00;101123.59;5037671;28;20504;-84
2023/04/28 03:39:14;;;;;;;22.73;10.65;;;;;;;7.29;100.00;101107.91;5027240;28;20033;-85
2023/04/28 03:41:40;;;;;;;20.98;11.57;;;;;;;7.29;100.00;101107.91;5034573;28;20025;-85
2023/04/28 03:44:05;;;;;;;25.58;10.57;;;;;;;7.35;100.00;101100.97;5033420;28;20029;-84
2023/04/28 03:46:31;;;;;;;21.95;11.43;;;;;;;7.22;100.00;101093.78;5036261;28;20032;-84
2023/04/28 03:48:56;;;;;;;19.20;11.48;;;;;;;6.94;100.00;101097.28;5040022;28;20021;-85
2023/04/28 03:51:21;;;;;;;21.55;10.68;;;;;;;7.19;100.00;101086.94;5026133;28;20021;-85
2023/04/28 03:53:47;;;;;;;17.30;10.20;;;;;;;7.19;100.00;101077.75;5016259;28;20074;-84
2023/04/28 03:56:12;;;;;;;17.55;9.68;;;;;;;7.39;99.72;101079.59;5040278;28;20103;-85
2023/04/28 03:58:38;;;;;;;22.45;11.35;;;;;;;7.39;100.00;101078.78;5027123;28;20037;-85
2023/04/28 04:01:04;;;;;;;20.58;10.85;;;;;;;7.36;99.69;101076.69;5028664;28;20037;-85
2023/04/28 04:03:29;;;;;;;25.52;12.43;;;;;;;7.19;100.00;101084.16;5003768;28;20061;-85
2023/04/28 04:05:55;;;;;;;24.27;12.00;;;;;;;7.05;100.00;101075.38;5035690;28;20416;-85
2023/04/28 04:08:20;;;;;;;20.85;10.93;;;;;;;7.18;100.00;101065.03;5020367;28;20115;-85
2023/04/28 04:10:46;;;;;;;18.73;10.70;;;;;;;7.16;100.00;101065.38;5040062;28;20053;-85
2023/04/28 04:13:11;;;;;;;24.17;11.60;;;;;;;7.17;100.00;101066.16;5017891;28;20032;-85
2023/04/28 04:15:37;;;;;;;23.67;12.85;;;;;;;7.01;100.00;101063.31;5008207;28;20046;-85
2023/04/28 04:18:02;;;;;;;19.38;10.60;;;;;;;7.16;100.00;101065.38;5032224;28;20171;-84
2023/04/28 04:20:27;;;;;;;16.38;9.68;;;;;;;7.43;100.00;101058.25;5033164;28;20033;-84
2023/04/28 04:22:53;;;;;;;20.00;10.27;;;;;;;7.29;100.00;101047.50;5032668;28;20021;-85
2023/04/28 04:25:18;;;;;;;19.45;10.93;;;;;;;7.15;100.00;101052.63;5040013;28;20592;-84
2023/04/28 04:27:43;;;;;;;20.48;10.23;;;;;;;7.33;100.00;101056.75;5020425;28;20117;-84
2023/04/28 04:30:09;;;;;;;18.58;10.68;;;;;;;7.35;100.00;101061.97;5034460;28;20033;-85
2023/04/28 04:32:34;;;;;;;23.90;10.75;;;;;;;7.30;100.00;101051.09;5045220;28;20061;-84
2023/04/28 04:35:00;;;;;;;20.30;10.07;;;;;;;7.24;100.00;101046.91;5037735;28;20056;-84
2023/04/28 04:37:25;;;;;;;22.02;10.88;;;;;;;7.38;99.99;101050.13;5012548;28;20033;-85
2023/04/28 04:39:51;;;;;;;23.13;11.85;;;;;;;7.18;100.00;101051.91;5017378;28;20171;-85
2023/04/28 04:42:16;;;;;;;23.55;11.57;;;;;;;6.92;100.00;101032.81;5033822;28;20040;-85
2023/04/28 04:44:41;;;;;;;21.25;10.00;;;;;;;7.51;98.95;101037.00;5018792;28;20025;-85
2023/04/28 04:47:07;;;;;;;21.33;12.18;;;;;;;7.29;100.00;101029.97;5032506;28;20481;-85
2023/04/28 04:49:32;;;;;;;20.30;10.85;;;;;;;7.38;99.81;101027.88;5016841;28;20551;-85
2023/04/28 04:51:58;;;;;;;20.52;11.35;;;;;;;7.46;100.00;101032.47;5032974;28;20021;-85
2023/04/28 04:54:23;;;;;;;20.95;10.52;;;;;;;7.60;98.48;101028.47;5012944;28;20060;-85
2023/04/28 04:56:49;;;;;;;16.27;9.57;;;;;;;7.47;99.26;101019.38;5029375;28;20025;-85
2023/04/28 04:59:14;;;;;;;22.23;11.07;;;;;;;7.24;100.00;101019.06;5042360;28;20029;-84
2023/04/28 05:01:40;;;;;;;21.77;11.18;;;;;;;7.49;99.10;101022.59;5037896;28;20106;-85
2023/04/28 05:04:05;;;;;;;17.77;10.85;;;;;;;7.51;99.78;101015.50;5014482;28;20032;-85
2023/04/28 05:06:31;;;;;;;21.27;10.35;;;;;;;7.53;99.18;101013.19;5017108;28;20037;-85
2023/04/28 05:08:58;;;;;;;19.42;9.73;;;;;;;7.51;98.50;101020.28;5022280;28;20545;-85
2023/04/28 05:11:23;;;;;;;21.08;10.48;;;;;;;7.41;99.09;101010.44;5033614;28;20041;-85
2023/04/28 05:13:48;;;;;;;17.90;11.27;;;;;;;7.38;99.90;101004.75;5014551;28;20044;-85
2023/04/28 05:16:14;;;;;;;14.93;10.07;;;;;;;7.48;98.47;101005.09;5038493;28;20156;-85
2023/04/28 05:18:40;;;;;;;17.73;8.75;;;;;;;7.40;98.88;101008.00;5017280;28;20111;-85
2023/04/28 05:21:05;;;;;;;17.25;8.63;;;;;;;7.48;98.19;101010.66;5015906;28;20527;-84
2023/04/28 05:23:31;;;;;;;19.08;10.75;;;;;;;7.57;98.23;101006.88;5029704;28;20049;-85
2023/04/28 05:25:56;;;;;;;20.02;10.20;;;;;;;7.62;97.04;100995.50;5033664;28;20035;-85
2023/04/28 05:28:22;;;;;;;15.30;8.82;;;;;;;7.76;96.03;101003.44;5021796;28;20036;-85
2023/04/28 05:30:47;;;;;;;20.05;9.68;;;;;;;7.71;96.58;101007.31;5044994;28;20056;-85
2023/04/28 05:33:12;;;;;;;18.10;8.25;;;;;;;7.68;95.71;101010.81;5003515;28;20037;-85
2023/04/28 05:35:38;;;;;;;15.05;8.80;;;;;;;7.83;95.19;101015.59;5030749;28;20072;-85
2023/04/28 05:38:03;;;;;;;19.33;9.48;;;;;;;7.77;96.10;101013.44;5017439;28;20033;-85
2023/04/28 05:40:29;;;;;;;17.48;9.10;;;;;;;7.68;95.42;101013.59;5016868;28;20389;-85
2023/04/28 05:42:55;;;;;;;17.05;10.30;;;;;;;7.52;95.96;101005.16;5025988;28;20477;-85
2023/04/28 05:45:20;;;;;;;16.13;8.48;;;;;;;7.63;95.91;101013.84;5022427;28;20111;-85
2023/04/28 05:47:46;;;;;;;20.70;10.18;;;;;;;7.70;95.45;101012.06;5036033;28;20025;-85
2023/04/28 05:50:11;;;;;;;15.40;9.00;;;;;;;7.82;94.23;101000.06;5034425;28;20178;-85
2023/04/28 05:52:37;;;;;;;18.27;9.27;;;;;;;7.85;93.63;101004.91;5022234;28;20451;-86
2023/04/28 05:55:02;;;;;;;17.23;9.05;;;;;;;7.79;94.78;101006.34;5043891;28;20405;-86
2023/04/28 05:57:28;;;;;;;25.60;11.07;;;;;;;7.81;95.16;101015.16;5031434;28;20243;-85
2023/04/28 05:59:53;;;;;;;16.27;9.05;;;;;;;7.89;95.20;101008.59;5028384;28;20265;-85
2023/04/28 06:02:18;;;;;;;17.33;9.27;;;;;;;7.82;94.39;101014.00;5004851;28;20128;-85
2023/04/28 06:04:44;;;;;;;15.32;9.02;;;;;;;7.81;94.77;101009.56;5039660;28;20029;-85
2023/04/28 06:07:09;;;;;;;20.30;8.93;;;;;;;7.72;94.51;100997.78;5022660;28;20065;-86
2023/04/28 06:09:35;;;;;;;17.30;8.48;;;;;;;7.78;93.75;101001.09;5022472;28;20128;-86
2023/04/28 06:12:02;;;;;;;15.82;7.78;;;;;;;7.71;94.79;101002.53;5024323;28;20119;-86
2023/04/28 06:14:28;;;;;;;16.52;8.95;;;;;;;7.78;94.11;101001.09;5042584;28;20033;-86
2023/04/28 06:16:53;;;;;;;13.45;7.85;;;;;;;7.77;94.15;100999.50;5031842;28;20699;-87
2023/04/28 06:19:19;;;;;;;13.77;7.00;;;;;;;7.87;93.56;100999.00;5041593;28;20125;-85
2023/04/28 06:21:45;;;;;;;15.95;8.88;;;;;;;7.78;94.17;100990.78;5043594;28;20032;-84
2023/04/28 06:24:11;;;;;;;13.93;8.63;;;;;;;7.83;93.21;100984.94;5028700;28;20052;-86
2023/04/28 06:26:36;;;;;;;17.95;7.57;;;;;;;7.84;93.66;100983.81;5039308;28;20033;-86
2023/04/28 06:29:02;;;;;;;16.27;7.97;;;;;;;7.86;93.24;100998.19;5022471;28;20025;-86
2023/04/28 06:31:27;;;;;;;13.30;8.50;;;;;;;8.03;92.94;100990.63;5017399;28;20037;-86
2023/04/28 06:33:53;;;;;;;15.77;9.70;;;;;;;7.96;93.39;100990.47;5020716;28;20031;-86
2023/04/28 06:36:18;;;;;;;16.23;8.98;;;;;;;7.94;94.81;100985.22;5015488;28;20032;-87
2023/04/28 06:38:44;;;;;;;15.82;7.75;;;;;;;8.03;94.34;100990.63;5047640;28;20036;-87
2023/04/28 06:41:10;;;;;;;15.00;8.43;;;;;;;8.06;95.77;101006.66;5045752;28;20060;-86
2023/04/28 06:43:36;;;;;;;14.13;8.43;;;;;;;8.17;95.23;101007.75;5040604;28;20109;-86
2023/04/28 06:46:02;;;;;;;16.15;8.23;;;;;;;8.10;99.01;101005.59;5043238;28;20056;-86
2023/04/28 06:48:28;;;;;;;13.18;8.25;;;;;;;8.25;100.00;100998.41;5030631;28;20045;-86
2023/04/28 06:50:53;;;;;;;15.82;8.73;;;;;;;8.28;100.00;100992.09;5020711;28;20037;-86
2023/04/28 06:53:19;;;;;;;15.77;9.63;;;;;;;8.21;100.00;100989.13;5015451;28;20033;-85
2023/04/28 06:55:44;;;;;;;19.02;8.73;;;;;;;8.02;100.00;100963.94;5012985;28;20029;-86
2023/04/28 06:58:10;;;;;;;16.95;8.63;;;;;;;8.01;100.00;100949.19;5010667;28;20520;-86
2023/04/28 07:00:35;;;;;;;24.65;9.48;;;;;;;7.98;100.00;100937.97;5030069;28;20036;-86
2023/04/28 07:03:01;;;;;;;20.35;10.82;;;;;;;8.03;100.00;100948.81;5020718;28;20040;-86
2023/04/28 07:05:27;;;;;;;17.27;9.70;;;;;;;8.06;100.00;100942.56;5034610;28;20028;-86
2023/04/28 07:07:53;;;;;;;21.80;11.27;;;;;;;8.10;100.00;100930.31;5042757;28;20112;-86
2023/04/28 07:10:19;;;;;;;16.98;9.23;;;;;;;8.06;100.00;100920.25;5032728;28;20086;-86
2023/04/28 07:12:45;;;;;;;18.98;9.82;;;;;;;8.22;100.00;100946.16;5032853;28;20154;-86
2023/04/28 07:15:11;;;;;;;24.38;11.05;;;;;;;8.13;100.00;100935.16;5042964;28;20024;-86
2023/04/28 07:17:36;;;;;;;19.02;9.98;;;;;;;8.25;100.00;100931.47;5022487;28;20025;-86
2023/04/28 07:20:03;;;;;;;18.55;10.25;;;;;;;8.20;100.00;100923.41;5034626;28;20021;-86
2023/04/28 07:22:28;;;;;;;20.17;11.00;;;;;;;8.31;100.00;100918.06;5015273;28;20039;-86
2023/04/28 07:24:54;;;;;;;18.88;10.52;;;;;;;8.41;100.00;100920.34;5032226;28;20040;-85
2023/04/28 07:27:19;;;;;;;18.83;8.85;;;;;;;8.49;100.00;100932.47;5038371;28;20064;-86
2023/04/28 07:29:44;;;;;;;17.33;10.43;;;;;;;8.32;100.00;100923.28;5034584;28;20048;-86
2023/04/28 07:32:10;;;;;;;15.82;9.73;;;;;;;8.57;100.00;100951.00;5034544;28;20068;-86
2023/04/28 07:34:36;;;;;;;21.10;10.25;;;;;;;8.70;100.00;100952.50;5021107;28;20024;-86
2023/04/28 07:37:02;;;;;;;15.98;10.18;;;;;;;8.84;100.00;100945.63;5039169;28;22144;-86
2023/04/28 07:39:28;;;;;;;16.30;9.35;;;;;;;8.89;100.00;100954.50;5016141;28;20523;-85
2023/04/28 07:41:53;;;;;;;20.80;10.68;;;;;;;8.87;100.00;100958.84;5014923;28;20029;-86
2023/04/28 07:44:19;;;;;;;15.52;9.77;;;;;;;8.93;100.00;100965.75;5038721;28;20477;-86
2023/04/28 07:46:44;;;;;;;18.30;10.90;;;;;;;8.86;100.00;100943.28;5039017;28;20472;-86
2023/04/28 07:49:09;;;;;;;14.25;9.77;;;;;;;8.98;100.00;100962.72;5013230;28;20500;-87
2023/04/28 07:51:35;;;;;;;18.20;9.75;;;;;;;9.09;100.00;100958.16;5034563;28;20115;-86
2023/04/28 07:54:00;;;;;;;17.35;9.35;;;;;;;9.18;100.00;100951.56;5013337;28;20036;-86
2023/04/28 07:56:26;;;;;;;19.23;9.77;;;;;;;9.31;100.00;100958.59;5017462;28;20087;-86
2023/04/28 07:58:52;;;;;;;19.85;10.45;;;;;;;9.37;100.00;100940.38;5022334;28;20049;-86
2023/04/28 08:01:17;;;;;;;16.02;9.50;;;;;;;9.40;100.00;100942.41;5017150;28;20020;-86
2023/04/28 08:03:43;;;;;;;19.05;11.00;;;;;;;9.62;100.00;100960.44;5038361;28;20033;-86
2023/04/28 08:06:08;;;;;;;19.08;9.80;;;;;;;9.58;100.00;100959.56;5032622;28;20115;-87
2023/04/28 08:08:34;;;;;;;17.23;10.48;;;;;;;9.55;100.00;100968.69;5044440;28;20028;-87
2023/04/28 08:11:00;;;;;;;19.70;10.82;;;;;;;9.63;100.00;100969.63;5026213;28;20025;-88
2023/04/28 08:13:27;;;;;;;16.58;10.88;;;;;;;9.69;100.00;100965.34;5045984;28;20052;-87
2023/04/28 08:15:55;;;;;;;19.13;11.52;;;;;;;9.75;100.00;100961.06;5023980;28;20021;-87
2023/04/28 08:18:20;;;;;;;20.85;10.40;;;;;;;9.72;100.00;100954.25;5037957;28;20468;-87
2023/04/28 08:20:50;;;;;;;17.10;11.23;;;;;;;9.69;100.00;100946.59;5022392;28;20025;-87
2023/04/28 08:23:16;;;;;;;19.42;10.55;;;;;;;9.78;100.00;100935.16;5021067;28;20036;-87
2023/04/28 08:25:41;;;;;;;13.90;9.82;;;;;;;9.86;100.00;100945.28;5024068;28;20032;-87
2023/04/28 08:28:07;;;;;;;17.30;10.77;;;;;;;9.85;100.00;100926.13;5021708;28;20631;-87
2023/04/28 08:30:33;;;;;;;15.55;9.45;;;;;;;10.10;100.00;100926.56;5025492;28;20084;-86
2023/04/28 08:32:59;;;;;;;17.63;10.50;;;;;;;10.06;100.00;100925.69;5018947;28;20028;-87
2023/04/28 08:35:25;;;;;;;17.25;10.82;;;;;;;10.07;100.00;100921.69;5042177;28;20079;-87
2023/04/28 08:37:51;;;;;;;22.30;10.52;;;;;;;10.20;100.00;100931.50;5029714;28;20580;-89
2023/04/28 08:40:17;;;;;;;20.20;10.52;;;;;;;10.23;100.00;100932.78;5042136;28;20028;-89
2023/04/28 08:42:45;;;;;;;20.70;11.40;;;;;;;10.24;100.00;100939.97;5027859;28;20504;-88
2023/04/28 08:45:13;;;;;;;23.27;12.02;;;;;;;10.30;100.00;100949.69;5025107;28;20438;-89
2023/04/28 08:47:46;;;;;;;14.73;10.77;;;;;;;10.27;100.00;100948.44;5037540;28;20633;-88
2023/04/28 08:50:13;;;;;;;17.60;9.90;;;;;;;10.31;100.00;100954.91;5032935;28;20646;-88
2023/04/28 08:52:40;;;;;;;18.48;11.35;;;;;;;10.42;100.00;100945.91;5041198;28;20247;-88
2023/04/28 08:55:08;;;;;;;22.33;11.50;;;;;;;10.46;100.00;100946.75;5016799;28;20091;-89
2023/04/28 08:57:40;;;;;;;20.10;11.05;;;;;;;10.44;100.00;100947.13;5035188;28;20032;-88
2023/04/28 09:00:06;;;;;;;16.77;10.48;;;;;;;10.55;100.00;100944.50;5034429;28;20029;-88
2023/04/28 09:02:31;;;;;;;20.33;11.15;;;;;;;10.56;100.00;100937.69;5033583;28;20484;-89
2023/04/28 09:04:57;;;;;;;15.02;8.75;;;;;;;10.56;100.00;100938.53;5024722;28;20081;-89
2023/04/28 09:07:22;;;;;;;17.92;10.57;;;;;;;10.59;100.00;100936.97;5029803;28;20045;-87
2023/04/28 09:09:48;;;;;;;20.48;11.82;;;;;;;10.61;100.00;100934.59;5014485;28;20121;-88
2023/04/28 09:12:13;;;;;;;20.08;12.02;;;;;;;10.66;100.00;100922.25;5021156;28;20044;-88
2023/04/28 09:14:38;;;;;;;21.08;10.88;;;;;;;10.73;100.00;100914.78;5005427;28;20631;-87
2023/04/28 09:17:12;;;;;;;15.98;10.25;;;;;;;10.70;100.00;100915.53;5002987;28;20029;-87
2023/04/28 09:19:38;;;;;;;21.75;10.98;;;;;;;10.75;100.00;100911.59;5007702;28;20033;-88
2023/04/28 09:22:05;;;;;;;17.98;11.20;;;;;;;10.82;100.00;100920.09;5008388;28;20038;-87
2023/04/28 09:24:35;;;;;;;20.27;10.63;;;;;;;10.90;100.00;100918.19;5022908;28;20377;-88
2023/04/28 09:27:03;;;;;;;21.05;12.32;;;;;;;11.03;100.00;100918.78;5018543;28;20037;-88
2023/04/28 09:29:32;;;;;;;17.15;10.82;;;;;;;11.10;100.00;100904.88;5026702;28;20119;-88
2023/04/28 09:32:19;;;;;;;18.10;11.63;;;;;;;11.20;100.00;100909.78;5029436;28;20033;-87
2023/04/28 09:34:47;;;;;;;18.48;12.05;;;;;;;11.32;100.00;100900.31;5008659;28;20033;-87
2023/04/28 09:37:21;;;;;;;14.70;10.73;;;;;;;11.33;100.00;100885.94;5009401;28;20033;-87
2023/04/28 09:39:49;;;;;;;21.00;11.82;;;;;;;11.37;100.00;100889.56;5000995;28;20534;-88
2023/04/28 09:42:37;;;;;;;21.77;13.05;;;;;;;11.57;100.00;100890.22;5020535;28;20033;-88
2023/04/28 09:45:05;;;;;;;22.52;12.13;;;;;;;11.67;100.00;100876.66;5022204;28;20079;-87
2023/04/28 09:47:33;;;;;;;20.30;11.77;;;;;;;11.79;100.00;100870.78;5019295;28;20032;-87
2023/04/28 09:50:03;;;;;;;21.65;12.73;;;;;;;11.99;100.00;100877.00;5009239;28;20021;-87
2023/04/28 09:52:29;;;;;;;19.63;12.25;;;;;;;12.04;100.00;100870.22;5025507;28;20069;-87
2023/04/28 09:54:56;;;;;;;20.35;12.00;;;;;;;12.15;100.00;100871.13;5025726;28;20095;-88
2023/04/28 09:57:22;;;;;;;22.48;11.90;;;;;;;12.21;100.00;100877.97;5017604;28;20044;-87
2023/04/28 09:59:49;;;;;;;19.00;12.40;;;;;;;12.27;100.00;100873.63;5025054;28;20026;-87
2023/04/28 10:02:16;;;;;;;18.05;12.38;;;;;;;12.19;100.00;100869.16;5009066;28;20118;-87
2023/04/28 10:04:44;;;;;;;20.13;12.43;;;;;;;12.27;100.00;100862.41;5021797;28;20029;-87
2023/04/28 10:07:12;;;;;;;20.23;14.18;;;;;;;12.37;100.00;100863.66;5030460;28;20041;-87
2023/04/28 10:09:38;;;;;;;19.23;13.23;;;;;;;12.49;100.00;100866.13;5027630;28;20029;-87
2023/04/28 10:12:05;;;;;;;19.52;13.40;;;;;;;12.56;100.00;100866.16;5040633;28;20123;-87
2023/04/28 10:14:31;;;;;;;21.65;13.98;;;;;;;12.69;100.00;100863.03;5026377;28;20021;-87
2023/04/28 10:16:58;;;;;;;20.45;13.38;;;;;;;12.78;100.00;100864.31;5024883;28;20037;-87
2023/04/28 10:19:24;;;;;;;26.30;13.63;;;;;;;12.82;100.00;100865.13;5018632;28;20040;-88
2023/04/28 10:22:10;;;;;;;21.55;14.50;;;;;;;12.79;100.00;100862.28;5037109;28;21136;-88
2023/04/28 10:25:08;;;;;;;25.90;15.05;;;;;;;12.73;100.00;100859.06;5039585;28;20033;-88
2023/04/28 10:27:35;;;;;;;23.98;15.80;;;;;;;12.80;100.00;100856.28;5023520;28;20036;-87
2023/04/28 10:30:36;;;;;;;24.75;17.02;;;;;;;12.85;100.00;100854.31;5029667;28;20038;-87
2023/04/28 10:33:05;;;;;;;28.35;16.33;;;;;;;12.86;100.00;100861.50;4978576;28;20121;-87
2023/04/28 10:35:30;;;;;;;31.65;18.08;;;;;;;12.97;100.00;100851.94;5014703;28;20037;-88
2023/04/28 10:38:28;;;;;;;30.50;19.25;;;;;;;12.98;100.00;100849.94;5029787;28;20386;-87
2023/04/28 10:40:54;;;;;;;33.17;20.00;;;;;;;12.81;100.00;100854.28;5003501;28;20144;-88
2023/04/28 10:43:29;;;;;;;33.58;20.73;;;;;;;12.81;100.00;100852.25;5036555;28;20051;-88
2023/04/28 10:46:01;;;;;;;36.42;21.65;;;;;;;12.76;100.00;100851.84;5030934;28;20029;-88
2023/04/28 10:48:29;;;;;;;39.53;20.57;;;;;;;12.77;100.00;100853.44;5035652;28;20028;-88
2023/04/28 10:51:04;;;;;;;38.70;22.60;;;;;;;12.71;100.00;100852.22;5042503;28;20033;-87
2023/04/28 10:53:44;;;;;;;39.10;23.35;;;;;;;12.62;100.00;100858.19;5034759;28;20556;-87
2023/04/28 10:56:15;;;;;;;34.10;20.83;;;;;;;12.70;100.00;100859.84;5038752;28;20171;-81
2023/04/28 10:58:44;;;;;;;43.15;23.08;;;;;;;12.63;100.00;100854.19;5049479;28;20515;-88
2023/04/28 11:01:31;;;;;;;39.20;22.45;;;;;;;12.63;100.00;100859.81;5018390;28;20036;-87
2023/04/28 11:04:16;;;;;;;42.90;25.00;;;;;;;12.51;100.00;100851.72;5055624;28;20021;-87
2023/04/28 11:06:43;;;;;;;45.10;23.52;;;;;;;12.55;100.00;100858.16;5028600;28;20441;-88
2023/04/28 11:09:12;;;;;;;42.20;24.63;;;;;;;12.53;100.00;100854.94;5043412;28;20543;-88